Badger Spring Valley, Nevada Weather observations

Data are for 10 minute period ending at time listed.
 Day   Time   Solar   Ave.   Ave.  Ave.  Vector  Max.   Baro.   Total    
  of    of     Rad.   Air    Rel.  Wind   Wind   Wind  Press.  Precip.   
Year   Day            Temp.  Hum.  Speed  Dir.   Gust                    
2017   (PST)  Kw/m2    F      %     mph   deg.    mph    mb.     in.     
-------------------------------------------------------------------------
 119    7:20   0.53   43.8    33   17.4   359    25.9   832.4    0.00 
 119    7:30   0.57   44.0    32   16.0   358    24.0   832.4    0.00 
 119    7:40   0.61   44.4    32   18.5   360    26.8   832.4    0.00 
 119    7:50   0.65   44.7    32   15.0     2    24.3   832.4    0.00 
 119    8:00   0.69   44.9    32   15.2     3    25.5   832.5    0.00 
 119    8:10   0.73   45.3    31   20.4   355    30.4   832.5    0.00 
 119    8:20   0.77   45.8    31   18.5   360    29.1   832.6    0.00 
 119    8:30   0.80   46.2    30   19.3   355    28.4   832.7    0.00 
 119    8:40   0.84   46.7    30   20.5   352    29.3   832.7    0.00 
 119    8:50   0.87   47.3    29   15.9   356    29.1   832.9    0.00 
 119    9:00   0.90   47.5    29   13.6    16    30.2   832.9    0.00 
 119    9:10   0.93   47.6    28   14.4    11    25.5   832.9    0.00 
 119    9:20   0.96   48.4    28   14.5    12    24.6   832.9    0.00 
 119    9:30   0.99   49.7    27   12.1     5    22.9   832.9    0.00 
 119    9:40   1.01   49.6    26   16.5   359    32.5   833.0    0.00 
 119    9:50   1.04   50.1    25   13.9     7    23.2   833.0    0.00 
 119   10:00   1.05   50.3    25   17.2   350    29.4   833.2    0.00 
 119   10:10   1.08   50.5    25   15.3     1    28.1   833.2    0.00 
 119   10:20   1.09   51.1    24   13.9   355    22.1   833.3    0.00 
 119   10:30   1.11   51.8    23   17.3   354    26.2   833.3    0.00 
 119   10:40   1.12   52.3    22   13.9    10    25.3   833.3    0.00 
 119   10:50   1.14   52.4    22   15.5     4    28.1   833.3    0.00 
 119   11:00   1.15   52.6    22   13.8    13    27.8   833.3    0.00 
 119   11:10   1.15   53.2    21   14.3     9    25.4   833.2    0.00 
 119   11:20   1.16   54.1    21   14.8   355    27.1   833.1    0.00 
 119   11:30   1.17   54.0    20   11.8     1    22.1   833.1    0.00 
 119   11:40   1.17   55.1    20   12.8   360    24.2   833.0    0.00 
 119   11:50   1.17   55.1    19   10.3   358    22.9   832.9    0.00 
 119   12:00   1.17   55.7    18   11.3    24    24.4   832.9    0.00 
 119   12:10   1.16   55.7    18   13.2     2    25.9   832.9    0.00 
 119   12:20   1.09   56.2    17   13.7     4    22.6   832.8    0.00 
 119   12:30   1.14   56.4    17   10.7   356    17.3   832.8    0.00 
 119   12:40   1.13   56.7    16   12.5   360    23.2   832.8    0.00 
 119   12:50   1.12   57.6    16   12.5   345    23.2   832.8    0.00 
 119   13:00   1.11   57.4    16   12.0    16    25.9   832.9    0.00 
 119   13:10   1.09   57.1    15   10.8     0    21.5   832.9    0.00 
 119   13:20   1.07   57.7    15   13.4   360    25.0   832.9    0.00 
 119   13:30   1.05   58.2    15   10.8   357    25.9   832.9    0.00 
 119   13:40   1.03   58.5    15   11.1    11    22.1   832.9    0.00 
 119   13:50   1.01   58.4    14   16.2   351    28.4   833.0    0.00 
 119   14:00   0.98   57.8    14   11.5    24    22.9   833.0    0.00 
 119   14:10   0.96   58.5    14   12.6     3    24.8   833.0    0.00 
 119   14:20   0.93   58.4    13   13.5    26    27.5   832.8    0.00 
 119   14:30   0.90   58.6    13   14.3    42    26.7   832.6    0.00 
 119   14:40   0.87   59.6    13   14.7   353    23.8   832.7    0.00 
 119   14:50   0.83   59.2    13   16.4     2    30.3   832.6    0.00 
 119   15:00   0.80   59.1    13   17.5   355    31.4   832.6    0.00 
 119   15:10   0.77   59.2    12   14.0   351    27.2   832.5    0.00 
 119   15:20   0.73   59.7    13   17.0   350    27.6   832.4    0.00 
 119   15:30   0.69   59.3    13   13.1    10    23.5   832.4    0.00 
 119   15:40   0.66   59.2    13   11.0     5    20.2   832.4    0.00 
 119   15:50   0.62   59.4    12   12.4     5    21.9   832.5    0.00 
 119   16:00   0.58   59.7    12    8.1    11    19.3   832.4    0.00 
 119   16:10   0.54   60.0    12   15.3   346    25.5   832.4    0.00 
 119   16:20   0.50   59.5    12   13.8   346    23.7   832.4    0.00 
 119   16:30   0.45   59.3    12   11.0     2    20.0   832.4    0.00 
 119   16:40   0.41   59.4    13    9.4   354    16.5   832.4    0.00 
 119   16:50   0.37   59.8    13   10.7   347    21.1   832.4    0.00 
 119   17:00   0.33   58.9    13   13.5   352    20.0   832.4    0.00 
 119   17:10   0.29   58.5    13   14.1   352    24.3   832.4    0.00 
 119   17:20   0.25   58.3    14   14.1   359    21.5   832.4    0.00 
 119   17:30   0.21   57.9    14   12.6   357    17.8   832.3    0.00 
 119   17:40   0.17   57.6    14   12.0   356    19.1   832.3    0.00 
 119   17:50   0.14   57.4    15    8.9   356    18.6   832.3    0.00 
 119   18:00   0.09   56.8    15    9.2   360    14.0   832.2    0.00 
 119   18:10   0.02   55.8    16    6.1   345    10.8   832.2    0.00 
 119   18:20   0.01   55.0    16    4.3   329     8.4   832.2    0.00 
 119   18:30   0.01   53.9    18    5.0   321     7.5   832.2    0.00 
 119   18:40   0.00   53.5    18    6.1   313    10.0   832.2    0.00 
 119   18:50   0.00   53.1    19    5.4   324     9.1   832.2    0.00 
 119   19:00   0.00   53.2    19    5.4   313     9.2   832.3    0.00 
 119   19:10   0.00   52.9    19    5.2   317     8.7   832.4    0.00 
 119   19:20   0.00   53.2    19    5.8   312     8.3   832.6    0.00 
 119   19:30   0.00   51.7    20    5.4   311     8.0   832.7    0.00 
 119   19:40   0.00   51.3    20    5.8   322     8.0   832.9    0.00 
 119   19:50   0.00   51.6    20    6.3   323     8.8   833.0    0.00 
 119   20:00   0.00   52.8    19    7.3   317     9.9   833.2    0.00 
 119   20:10   0.00   52.3    19    7.2   312     9.8   833.2    0.00 
 119   20:20   0.00   53.2    18    7.6   324    12.6   833.3    0.00 
 119   20:30   0.00   53.6    18    6.4   332     9.9   833.4    0.00 
 119   20:40   0.00   52.9    18    5.9   330     9.2   833.6    0.00 
 119   20:50   0.00   53.0    18    7.0   328    12.3   833.6    0.00 
 119   21:00   0.00   53.2    17    6.0   328    11.5   833.7    0.00 
 119   21:10   0.00   52.7    17    6.7   343    10.2   833.8    0.00 
 119   21:20   0.00   51.4    18    6.8   349     9.1   833.8    0.00 
 119   21:30   0.00   50.5    19    6.2   324     8.7   833.9    0.00 
 119   21:40   0.00   50.5    19    4.8   336     7.9   833.9    0.00 
 119   21:50   0.00   49.0    20    5.5   351     7.7   834.0    0.00 
 119   22:00   0.00   49.6    20    5.9   330     8.6   834.0    0.00 
 119   22:10   0.00   50.1    19    5.0   330     7.5   834.1    0.00 
 119   22:20   0.00   50.1    20    8.0   336    10.7   834.2    0.00 
 119   22:30   0.00   50.2    20    8.5   338    12.2   834.1    0.00 
 119   22:40   0.00   50.1    21    9.3   336    12.9   834.2    0.00 
 119   22:50   0.00   50.3    21   10.0   335    13.2   834.2    0.00 
 119   23:00   0.00   49.9    22    9.7   333    13.0   834.2    0.00 
 119   23:10   0.00   50.1    22   11.1   338    14.8   834.2    0.00 
 119   23:20   0.00   49.8    23   10.7   344    14.3   834.3    0.00 
 119   23:30   0.00   49.9    23   10.3   339    15.3   834.3    0.00 
 119   23:40   0.00   49.9    23    9.6   342    13.0   834.2    0.00 
 119   23:50   0.00   49.6    24    8.9   340    14.0   834.2    0.00 
 120    0:00   0.00   49.6    24   10.8   344    15.1   834.2    0.00 
 120    0:10   0.00   49.4    24   10.3   345    14.1   834.2    0.00 
 120    0:20   0.00   49.5    24   10.8   347    16.9   834.2    0.00 
 120    0:30   0.00   49.4    24   11.7   349    15.2   834.2    0.00 
 120    0:40   0.00   48.6    25   10.3   350    13.5   834.1    0.00 
 120    0:50   0.00   48.0    25    8.8   342    12.2   834.0    0.00 
 120    1:00   0.00   47.9    26    9.5   350    13.7   834.0    0.00 
 120    1:10   0.00   47.4    26    9.0   345    11.5   834.0    0.00 
 120    1:20   0.00   47.1    26   10.1   346    13.3   834.0    0.00 
 120    1:30   0.00   47.3    26   10.3   346    13.2   834.0    0.00 
 120    1:40   0.00   47.4    26   11.0   346    14.0   833.9    0.00 
 120    1:50   0.00   47.6    26   10.0   344    14.6   833.9    0.00 
 120    2:00   0.00   47.6    26    8.1   346    12.6   833.9    0.00 
 120    2:10   0.00   47.6    26    7.8   345    11.7   833.9    0.00 
 120    2:20   0.00   47.6    25    7.7   345    12.3   833.9    0.00 
 120    2:30   0.00   47.7    25    8.4   338    12.3   833.9    0.00 
 120    2:40   0.00   47.7    24    8.7   340    12.2   833.8    0.00 
 120    2:50   0.00   47.7    24    8.7   331    13.2   833.8    0.00 
 120    3:00   0.00   47.9    24    6.5   297    12.4   833.8    0.00 
 120    3:10   0.00   45.3    27    6.6   307    10.1   833.8    0.00 
 120    3:20   0.00   41.9    31    7.0   317     9.7   833.7    0.00 
 120    3:30   0.00   41.1    32    6.5   329     9.1   833.8    0.00 
 120    3:40   0.00   42.2    31    6.8   352     8.8   833.8    0.00 
 120    3:50   0.00   42.7    31    6.7     5     8.5   833.8    0.00 
 120    4:00   0.00   40.0    34    8.4     4    10.4   833.7    0.00 
 120    4:10   0.00   42.7    32    9.6   358    10.8   833.8    0.00 
 120    4:20   0.00   43.1    31    9.8   352    10.8   833.9    0.00 
 120    4:30   0.00   42.7    32    9.0   349    10.2   833.9    0.00 
 120    4:40   0.00   42.1    32    9.3   350    10.7   833.8    0.00 
 120    4:50   0.00   42.3    32    9.8   343    11.1   833.8    0.00 
 120    5:00   0.01   41.7    33    7.3   329     9.9   834.0    0.00 
 120    5:10   0.04   42.4    32    7.7   343    11.0   834.1    0.00 
 120    5:20   0.07   45.7    28    5.8   330    10.7   834.1    0.00 
 120    5:30   0.10   47.3    27    5.5   338    10.2   834.2    0.00 
 120    5:40   0.13   47.9    27    6.9   345    10.2   834.4    0.00 
 120    5:50   0.16   48.5    27    4.5     5     8.0   834.4    0.00 
 120    6:00   0.20   49.1    26    7.5   345    11.5   834.4    0.00 
 120    6:10   0.24   49.7    26    7.3   342    11.1   834.5    0.00 
 120    6:20   0.28   50.6    26    6.2   349    10.7   834.5    0.00 
 120    6:30   0.32   50.9    25    5.6     3    10.4   834.6    0.00 
 120    6:40   0.36   51.7    25    5.8     6    10.2   834.7    0.00 
 120    6:50   0.40   52.4    25    5.6    12     9.6   834.9    0.00 
 120    7:00   0.44   52.9    24    5.4     8     8.9   835.0    0.00 
 120    7:10   0.48   53.0    24    7.1    12    11.5   835.1    0.00 

Return to Badger Spring Valley graphs page.


Western Regional Climate Center,wrcc@dri.edu